Time;durP1;ratioP1;P1;durP2;ratioP2;P2;SDS_P1;SDS_P2;PMS_P1;PMS_P2;Temp;Humidity;BMP_temperature;BMP_pressure;BME280_temperature;BME280_humidity;BME280_pressure;Samples;Min_cycle;Max_cycle;Signal;HPM_P1;HPM_P2
2021/09/30 00:00:41;;;;;;;9.70;7.57;;;15.30;99.90;;;;;;5075697;28;20781;-65
2021/09/30 00:03:08;;;;;;;7.40;6.70;;;15.30;99.90;;;;;;5093739;28;20177;-63
2021/09/30 00:05:33;;;;;;;9.67;7.07;;;15.30;99.90;;;;;;5075497;28;20898;-65
2021/09/30 00:07:59;;;;;;;10.43;7.40;;;15.30;99.90;;;;;;5093644;28;20561;-64
2021/09/30 00:10:25;;;;;;;10.90;7.80;;;15.30;99.90;;;;;;5093570;28;20654;-64
2021/09/30 00:13:00;;;;;;;8.90;7.97;;;15.30;99.90;;;;;;5093617;28;20183;-65
2021/09/30 00:39:58;;;;;;;8.43;7.30;;;15.30;99.90;;;;;;5097376;28;20393;-64
2021/09/30 00:47:59;;;;;;;9.97;7.90;;;15.20;99.90;;;;;;5097685;28;20545;-65
2021/09/30 00:50:54;;;;;;;10.70;8.50;;;15.20;99.90;;;;;;5097115;28;20460;-64
2021/09/30 01:18:45;;;;;;;9.03;7.63;;;15.20;99.90;;;;;;5096598;28;20467;-65
2021/09/30 01:31:15;;;;;;;10.20;7.43;;;15.20;99.90;;;;;;5096429;28;20917;-64
2021/09/30 02:20:04;;;;;;;9.67;7.60;;;15.20;99.90;;;;;;5095735;28;20428;-65
2021/09/30 02:58:12;;;;;;;10.50;8.47;;;15.40;99.90;;;;;;5095113;28;20446;-64
2021/09/30 03:00:40;;;;;;;16.83;9.20;;;15.40;99.90;;;;;;5094863;28;20397;-65
2021/09/30 03:03:06;;;;;;;12.63;9.03;;;15.50;99.90;;;;;;5094663;28;20775;-66
2021/09/30 03:05:33;;;;;;;11.93;8.60;;;15.50;99.90;;;;;;5076356;28;20432;-66
2021/09/30 03:07:59;;;;;;;12.90;9.60;;;15.50;99.90;;;;;;5094422;28;20460;-63
2021/09/30 03:10:25;;;;;;;12.10;8.83;;;15.50;99.90;;;;;;5076130;28;20433;-66
2021/09/30 03:12:53;;;;;;;10.23;7.90;;;15.50;99.90;;;;;;5094476;28;20425;-64
2021/09/30 03:17:59;;;;;;;9.20;7.30;;;15.50;99.90;;;;;;5094272;28;20475;-64
2021/09/30 03:20:30;;;;;;;10.90;8.47;;;15.60;99.90;;;;;;5076416;28;20426;-66
2021/09/30 03:23:12;;;;;;;9.27;8.27;;;15.60;99.90;;;;;;5094329;28;20389;-66
2021/09/30 03:25:39;;;;;;;10.40;9.03;;;15.60;99.90;;;;;;5094326;28;20404;-65
2021/09/30 03:28:05;;;;;;;10.87;8.27;;;15.60;99.90;;;;;;5094043;28;20517;-67
2021/09/30 03:30:31;;;;;;;12.17;8.53;;;15.70;99.90;;;;;;5075856;28;20436;-64
2021/09/30 03:33:01;;;;;;;11.40;8.40;;;15.70;99.90;;;;;;5075964;28;20424;-64
2021/09/30 03:35:27;;;;;;;12.73;9.30;;;15.70;99.90;;;;;;5075900;28;20441;-67
2021/09/30 03:37:53;;;;;;;11.57;8.77;;;15.70;99.90;;;;;;5094066;28;20816;-65
2021/09/30 03:40:19;;;;;;;10.70;8.70;;;15.70;99.90;;;;;;5075905;28;20776;-64
2021/09/30 03:42:44;;;;;;;9.60;7.70;;;15.80;99.90;;;;;;5094473;28;20177;-67
2021/09/30 03:45:10;;;;;;;11.97;8.50;;;15.80;99.90;;;;;;5075913;28;20542;-64
2021/09/30 03:47:37;;;;;;;10.20;8.20;;;15.80;99.90;;;;;;5094408;28;20252;-65
2021/09/30 03:50:05;;;;;;;12.83;8.70;;;15.80;99.90;;;;;;5093853;28;20436;-63
2021/09/30 04:00:15;;;;;;;10.43;9.27;;;15.90;99.90;;;;;;5093638;28;20391;-66
2021/09/30 04:02:40;;;;;;;8.40;7.60;;;15.90;99.90;;;;;;5094277;28;20405;-65
2021/09/30 04:05:06;;;;;;;11.00;7.90;;;15.90;99.90;;;;;;5093667;28;20448;-65
2021/09/30 04:07:32;;;;;;;11.20;8.40;;;15.90;99.90;;;;;;5094182;28;20234;-64
2021/09/30 04:09:58;;;;;;;9.30;7.87;;;15.90;99.90;;;;;;5093594;28;20990;-65
2021/09/30 04:12:23;;;;;;;10.30;8.93;;;15.90;99.90;;;;;;5075800;28;20704;-64
2021/09/30 04:14:49;;;;;;;11.50;8.53;;;15.90;99.90;;;;;;5093613;28;20427;-65
2021/09/30 04:17:15;;;;;;;11.90;8.90;;;15.90;99.90;;;;;;5093751;28;20723;-65
2021/09/30 04:19:40;;;;;;;9.13;8.20;;;15.90;99.90;;;;;;5093629;28;20193;-64
2021/09/30 04:22:06;;;;;;;10.10;9.10;;;15.90;99.90;;;;;;5103905;28;20179;-64
2021/09/30 04:24:32;;;;;;;11.37;9.40;;;15.90;99.90;;;;;;5111716;28;20568;-67
2021/09/30 04:26:57;;;;;;;9.63;8.63;;;15.90;99.90;;;;;;5112013;28;20523;-64
2021/09/30 04:29:24;;;;;;;12.23;10.33;;;15.90;99.90;;;;;;5111645;28;20298;-64
2021/09/30 04:31:50;;;;;;;12.90;9.77;;;15.90;99.90;;;;;;5086684;28;20191;-67
2021/09/30 04:34:16;;;;;;;11.57;8.73;;;15.90;99.90;;;;;;5090048;28;20823;-64
2021/09/30 04:36:42;;;;;;;10.90;8.43;;;15.90;99.90;;;;;;5090460;28;20409;-64
2021/09/30 04:39:07;;;;;;;10.73;9.20;;;15.90;99.90;;;;;;5091986;28;20206;-67
2021/09/30 04:41:33;;;;;;;10.50;8.30;;;15.90;99.90;;;;;;5072580;28;20463;-65
2021/09/30 04:43:59;;;;;;;9.57;8.50;;;15.90;99.90;;;;;;5055566;28;20221;-65
2021/09/30 04:46:26;;;;;;;13.23;9.20;;;15.80;99.90;;;;;;5073311;28;20642;-65
2021/09/30 04:48:51;;;;;;;13.63;9.43;;;15.80;99.90;;;;;;5076431;28;20279;-67
2021/09/30 04:51:18;;;;;;;13.10;9.20;;;15.80;99.90;;;;;;5093604;28;20421;-66
2021/09/30 04:53:44;;;;;;;11.50;7.80;;;15.80;99.90;;;;;;5091778;28;20265;-66
2021/09/30 04:56:11;;;;;;;10.80;8.60;;;15.80;99.90;;;;;;5101294;28;20435;-65
2021/09/30 04:58:38;;;;;;;8.87;7.73;;;15.70;99.90;;;;;;5074155;28;20453;-66
2021/09/30 05:01:04;;;;;;;11.40;8.57;;;15.70;99.90;;;;;;5082704;28;20424;-65
2021/09/30 05:03:30;;;;;;;8.70;7.80;;;15.70;99.90;;;;;;5090166;28;20419;-66
2021/09/30 05:05:56;;;;;;;9.77;8.23;;;15.70;99.90;;;;;;5099872;28;20915;-66
2021/09/30 05:08:21;;;;;;;9.20;8.30;;;15.70;99.90;;;;;;5085417;28;20510;-65
2021/09/30 05:10:49;;;;;;;10.93;8.30;;;15.60;99.90;;;;;;5094436;28;20254;-66
2021/09/30 05:13:21;;;;;;;10.87;8.57;;;15.70;99.90;;;;;;5091712;28;20587;-66
2021/09/30 05:15:47;;;;;;;12.90;7.87;;;15.60;99.90;;;;;;5117211;28;20411;-66
2021/09/30 05:18:13;;;;;;;10.67;8.63;;;15.60;99.90;;;;;;5116789;28;20991;-66
2021/09/30 05:20:39;;;;;;;10.90;8.37;;;15.60;99.90;;;;;;5101217;28;20221;-64
2021/09/30 05:23:05;;;;;;;11.80;8.50;;;15.60;99.90;;;;;;5104509;28;20534;-64
2021/09/30 05:25:30;;;;;;;10.13;9.10;;;15.60;99.90;;;;;;5108592;28;20518;-64
2021/09/30 05:27:56;;;;;;;11.17;8.53;;;15.60;99.90;;;;;;5109644;28;20227;-65
2021/09/30 05:30:22;;;;;;;9.87;7.73;;;15.60;99.90;;;;;;5099615;28;20205;-66
2021/09/30 05:32:48;;;;;;;9.97;9.00;;;15.60;99.90;;;;;;5101725;28;20237;-66
2021/09/30 05:35:15;;;;;;;8.67;7.77;;;15.60;99.90;;;;;;5102964;28;20456;-66
2021/09/30 05:37:40;;;;;;;9.43;8.40;;;15.60;99.90;;;;;;5080098;28;20524;-66
2021/09/30 05:40:07;;;;;;;9.87;8.30;;;15.60;99.90;;;;;;5088510;28;20479;-65
2021/09/30 05:42:32;;;;;;;12.20;8.60;;;15.60;99.90;;;;;;5095609;28;20529;-65
2021/09/30 05:45:05;;;;;;;10.60;8.10;;;15.60;99.90;;;;;;5095575;28;20432;-64
2021/09/30 05:47:30;;;;;;;10.17;8.23;;;15.60;99.90;;;;;;5080875;28;20184;-64
2021/09/30 05:49:56;;;;;;;10.57;8.60;;;15.60;99.90;;;;;;5076028;28;20430;-67
2021/09/30 05:52:22;;;;;;;9.73;8.37;;;15.60;99.90;;;;;;5076176;28;20252;-67
2021/09/30 05:54:47;;;;;;;12.07;9.00;;;15.60;99.90;;;;;;5072895;28;20293;-64
2021/09/30 05:57:13;;;;;;;10.60;8.43;;;15.60;99.90;;;;;;5074934;28;20176;-64
2021/09/30 05:59:40;;;;;;;10.30;8.80;;;15.60;99.90;;;;;;5093626;28;20567;-65
2021/09/30 06:13:28;;;;;;;11.07;8.23;;;15.70;99.90;;;;;;5053365;28;20441;-65
2021/09/30 06:15:54;;;;;;;10.23;9.10;;;15.70;99.90;;;;;;5069316;28;20939;-65
2021/09/30 06:18:19;;;;;;;9.17;8.27;;;15.80;99.90;;;;;;5070999;28;20583;-64
2021/09/30 06:20:46;;;;;;;9.93;8.17;;;15.80;99.90;;;;;;5080519;28;20234;-66
2021/09/30 06:23:12;;;;;;;14.00;9.70;;;15.80;99.90;;;;;;5071151;28;20184;-67
2021/09/30 06:25:38;;;;;;;13.27;9.10;;;15.90;99.90;;;;;;5077942;28;20420;-63
2021/09/30 06:28:03;;;;;;;14.23;8.03;;;15.80;99.90;;;;;;5073135;28;20205;-63
2021/09/30 06:30:30;;;;;;;10.27;9.23;;;15.90;99.90;;;;;;5105606;28;20253;-67
2021/09/30 06:32:56;;;;;;;10.07;7.73;;;15.90;99.90;;;;;;5081976;28;20207;-68
2021/09/30 06:35:22;;;;;;;9.10;7.77;;;15.90;99.90;;;;;;5081953;28;21025;-68
2021/09/30 06:37:48;;;;;;;10.60;8.30;;;16.00;99.90;;;;;;5088627;28;20412;-64
2021/09/30 06:40:14;;;;;;;12.70;9.13;;;16.00;99.90;;;;;;5092065;28;20440;-63
2021/09/30 06:42:40;;;;;;;8.23;7.43;;;16.00;99.90;;;;;;5082197;28;20504;-64
2021/09/30 06:45:06;;;;;;;11.20;8.90;;;16.00;99.90;;;;;;5073796;28;20239;-68
2021/09/30 06:47:36;;;;;;;11.60;8.47;;;16.00;99.90;;;;;;5084498;28;20184;-65
2021/09/30 06:50:08;;;;;;;10.97;8.80;;;16.10;99.90;;;;;;5090933;28;20880;-67
2021/09/30 06:52:33;;;;;;;40.13;26.53;;;16.10;99.90;;;;;;5081502;28;20495;-67
2021/09/30 06:54:59;;;;;;;12.97;10.77;;;16.10;99.90;;;;;;5080405;28;20576;-68
2021/09/30 06:57:29;;;;;;;11.40;9.87;;;16.10;99.90;;;;;;5084965;28;20303;-69
2021/09/30 07:00:01;;;;;;;13.03;8.50;;;16.10;99.90;;;;;;5095139;28;20540;-68
2021/09/30 07:02:27;;;;;;;10.97;9.50;;;16.10;99.90;;;;;;5069467;28;20426;-68
2021/09/30 07:04:53;;;;;;;10.27;9.17;;;16.10;99.90;;;;;;5066844;28;20483;-67
2021/09/30 07:07:19;;;;;;;10.27;8.53;;;16.10;99.90;;;;;;5089610;28;20630;-67
2021/09/30 07:09:45;;;;;;;9.13;8.10;;;16.20;99.90;;;;;;5079823;28;20472;-67
2021/09/30 07:12:12;;;;;;;11.77;8.77;;;16.20;99.90;;;;;;5070858;28;20717;-67
2021/09/30 07:14:39;;;;;;;15.03;9.37;;;16.20;99.90;;;;;;5091758;28;20429;-67
2021/09/30 07:17:05;;;;;;;13.33;9.00;;;16.20;99.90;;;;;;5090708;28;20580;-68
2021/09/30 07:19:33;;;;;;;10.60;8.87;;;16.20;99.90;;;;;;5072715;28;20946;-67
2021/09/30 07:22:00;;;;;;;11.80;8.90;;;16.20;99.90;;;;;;5089596;28;20431;-68
2021/09/30 07:24:26;;;;;;;11.63;9.57;;;16.30;99.90;;;;;;5091237;28;20846;-67
2021/09/30 07:26:54;;;;;;;11.53;8.40;;;16.30;99.90;;;;;;5053043;28;20434;-67
2021/09/30 07:29:22;;;;;;;11.10;9.03;;;16.30;99.90;;;;;;5062040;28;20508;-65
2021/09/30 07:31:49;;;;;;;10.70;9.20;;;16.40;99.90;;;;;;5064217;28;20531;-64
2021/09/30 07:34:14;;;;;;;10.87;9.40;;;16.40;99.90;;;;;;5081660;28;20869;-65
2021/09/30 07:36:46;;;;;;;10.10;9.03;;;16.40;99.90;;;;;;5073206;28;20440;-65
2021/09/30 07:39:17;;;;;;;11.70;9.30;;;16.40;99.90;;;;;;5087578;28;20193;-63
2021/09/30 07:41:45;;;;;;;17.23;9.47;;;16.50;99.90;;;;;;5080871;28;20946;-63
2021/09/30 07:44:11;;;;;;;11.40;8.50;;;16.50;99.90;;;;;;5088358;28;20443;-66
2021/09/30 07:46:38;;;;;;;15.47;9.43;;;16.50;99.90;;;;;;5082411;28;20434;-68
2021/09/30 07:49:05;;;;;;;11.47;8.53;;;16.50;99.90;;;;;;5080748;28;20473;-68
2021/09/30 07:51:36;;;;;;;11.10;8.80;;;16.60;99.90;;;;;;5070803;28;20433;-67
2021/09/30 07:54:04;;;;;;;16.83;9.57;;;16.60;99.90;;;;;;5078918;28;20449;-68
2021/09/30 07:56:30;;;;;;;14.10;8.50;;;16.60;99.90;;;;;;5096718;28;20999;-66
2021/09/30 07:58:58;;;;;;;9.90;8.23;;;16.60;99.90;;;;;;5089489;28;20455;-67
2021/09/30 08:01:28;;;;;;;10.00;8.30;;;16.70;99.90;;;;;;5070028;28;20525;-66
2021/09/30 08:03:57;;;;;;;10.53;8.27;;;16.70;99.90;;;;;;5052632;28;20517;-70
2021/09/30 08:06:26;;;;;;;9.67;7.93;;;16.70;99.90;;;;;;5066376;28;20735;-67
2021/09/30 08:08:58;;;;;;;10.47;8.10;;;16.70;99.90;;;;;;5060398;28;20480;-66
2021/09/30 08:11:27;;;;;;;10.77;8.60;;;16.70;99.90;;;;;;5081712;28;20841;-65
2021/09/30 08:13:54;;;;;;;11.67;9.17;;;16.70;99.90;;;;;;5085448;28;20433;-66
2021/09/30 08:16:22;;;;;;;10.23;8.57;;;16.70;99.90;;;;;;5096795;28;20439;-68
2021/09/30 08:18:48;;;;;;;9.47;8.00;;;16.70;99.90;;;;;;5098350;28;20492;-68
2021/09/30 08:21:15;;;;;;;13.07;8.57;;;16.70;99.90;;;;;;5088858;28;20835;-67
2021/09/30 08:23:42;;;;;;;10.07;8.87;;;16.70;99.90;;;;;;5070278;28;20433;-67
2021/09/30 08:26:08;;;;;;;11.77;9.03;;;16.70;99.90;;;;;;5066790;28;20433;-64
2021/09/30 08:28:38;;;;;;;10.43;8.10;;;16.70;99.90;;;;;;5085760;28;20495;-63
2021/09/30 08:31:08;;;;;;;9.47;8.20;;;16.60;99.90;;;;;;5066502;28;20429;-63
2021/09/30 08:33:40;;;;;;;11.50;8.13;;;16.70;99.90;;;;;;5073666;28;20445;-68
2021/09/30 08:36:12;;;;;;;12.33;9.70;;;16.70;99.90;;;;;;5092075;28;20465;-67
2021/09/30 08:38:38;;;;;;;10.80;9.17;;;16.70;99.90;;;;;;5079717;28;20528;-68
2021/09/30 08:41:06;;;;;;;11.23;8.80;;;16.70;99.90;;;;;;5074339;28;20434;-68
2021/09/30 08:43:35;;;;;;;9.20;8.20;;;16.70;99.90;;;;;;5088173;28;20846;-69
2021/09/30 08:46:05;;;;;;;8.93;7.70;;;16.70;99.90;;;;;;5050896;28;20426;-71
2021/09/30 08:48:35;;;;;;;10.60;8.30;;;16.70;99.90;;;;;;5084750;28;20902;-70
2021/09/30 08:51:02;;;;;;;9.67;8.40;;;16.70;99.90;;;;;;5091358;28;20425;-69
2021/09/30 08:53:28;;;;;;;12.53;9.00;;;16.70;99.90;;;;;;5086731;28;20529;-68
2021/09/30 08:55:54;;;;;;;11.80;8.00;;;16.80;99.90;;;;;;5090584;28;20464;-68
2021/09/30 08:58:20;;;;;;;10.87;8.47;;;16.80;99.90;;;;;;5075555;28;20185;-68
2021/09/30 09:00:46;;;;;;;9.67;8.50;;;16.80;99.90;;;;;;5087754;28;20815;-69
2021/09/30 09:03:16;;;;;;;12.53;8.40;;;16.80;99.90;;;;;;5068899;28;20254;-68
2021/09/30 09:05:43;;;;;;;12.80;8.63;;;16.80;99.90;;;;;;5075852;28;20494;-69
2021/09/30 09:08:11;;;;;;;9.87;8.70;;;16.90;99.90;;;;;;5088970;28;20449;-67
2021/09/30 09:10:43;;;;;;;10.00;8.70;;;16.90;99.90;;;;;;5073552;28;20275;-69
2021/09/30 09:13:18;;;;;;;12.90;9.00;;;16.90;99.90;;;;;;5074045;28;20431;-69
2021/09/30 09:15:57;;;;;;;11.33;8.37;;;16.90;99.90;;;;;;5071632;28;20404;-73
2021/09/30 09:18:34;;;;;;;10.40;8.63;;;17.00;99.90;;;;;;5064071;28;20464;-72
2021/09/30 09:21:03;;;;;;;10.90;8.60;;;17.00;99.90;;;;;;5055671;28;20765;-71
2021/09/30 09:23:34;;;;;;;10.67;9.17;;;17.00;99.90;;;;;;5042648;28;20438;-70
2021/09/30 09:26:20;;;;;;;12.10;8.70;;;17.00;99.90;;;;;;5038872;28;20487;-69
2021/09/30 09:29:17;;;;;;;11.63;9.53;;;17.00;99.90;;;;;;5036326;28;20520;-70
2021/09/30 09:31:49;;;;;;;12.73;9.63;;;17.00;99.90;;;;;;5047828;28;20457;-69
2021/09/30 09:34:17;;;;;;;14.10;9.23;;;17.10;99.90;;;;;;5048135;28;21125;-69
2021/09/30 09:36:43;;;;;;;10.87;8.50;;;17.10;99.90;;;;;;5053749;28;20458;-69
2021/09/30 09:39:09;;;;;;;10.43;9.33;;;17.10;99.90;;;;;;5050948;28;20430;-69
2021/09/30 09:41:35;;;;;;;12.10;9.43;;;17.10;99.90;;;;;;5042097;28;20451;-69
2021/09/30 09:44:04;;;;;;;11.30;9.27;;;17.10;99.90;;;;;;5044613;28;20435;-69
2021/09/30 09:46:38;;;;;;;11.87;9.20;;;17.10;99.90;;;;;;5041369;28;20517;-69
2021/09/30 09:49:08;;;;;;;11.03;8.60;;;17.20;99.90;;;;;;5042380;28;20469;-69
2021/09/30 09:51:39;;;;;;;9.80;8.43;;;17.20;99.90;;;;;;5044280;28;20512;-70
2021/09/30 09:54:13;;;;;;;9.43;8.50;;;17.20;99.90;;;;;;5041682;28;20438;-69
2021/09/30 09:56:40;;;;;;;13.50;8.40;;;17.20;99.90;;;;;;5036836;28;20435;-69
2021/09/30 09:59:05;;;;;;;11.90;8.87;;;17.20;99.90;;;;;;5032753;28;20440;-69
2021/09/30 10:01:43;;;;;;;10.80;9.13;;;17.20;99.90;;;;;;5047538;28;21077;-69
2021/09/30 10:04:11;;;;;;;11.83;9.47;;;17.30;99.90;;;;;;5057418;28;20686;-69
2021/09/30 10:06:38;;;;;;;9.30;8.13;;;17.30;99.90;;;;;;5063619;28;21122;-69
2021/09/30 10:09:06;;;;;;;14.47;10.33;;;17.30;99.90;;;;;;5071673;28;20473;-69
2021/09/30 10:11:32;;;;;;;12.17;9.90;;;17.30;99.90;;;;;;5044294;28;20432;-67
2021/09/30 10:14:00;;;;;;;11.27;9.57;;;17.30;99.90;;;;;;5064830;28;20462;-67
2021/09/30 10:16:27;;;;;;;11.20;9.70;;;17.40;99.90;;;;;;5067160;28;20478;-67
2021/09/30 10:18:58;;;;;;;13.13;9.47;;;17.30;99.90;;;;;;5101235;28;20556;-67
2021/09/30 10:21:25;;;;;;;11.73;9.23;;;17.30;99.90;;;;;;5095611;28;20425;-67
2021/09/30 10:24:06;;;;;;;15.57;10.20;;;17.40;99.90;;;;;;5097564;28;20502;-67
2021/09/30 10:26:44;;;;;;;12.63;9.20;;;17.40;99.90;;;;;;5073379;28;20433;-67
2021/09/30 10:29:10;;;;;;;13.87;9.70;;;17.40;99.90;;;;;;5091275;28;20827;-67
2021/09/30 10:31:37;;;;;;;11.47;8.30;;;17.40;99.90;;;;;;5114615;28;20501;-67
2021/09/30 10:34:09;;;;;;;9.03;7.90;;;17.40;99.90;;;;;;5082934;28;20436;-66
2021/09/30 10:36:43;;;;;;;14.57;9.30;;;17.50;99.90;;;;;;5096577;28;20424;-67
2021/09/30 10:39:29;;;;;;;10.43;9.33;;;17.50;99.90;;;;;;5086330;28;20441;-65
2021/09/30 10:41:56;;;;;;;11.33;8.83;;;17.50;99.90;;;;;;5076751;28;20758;-68
2021/09/30 10:44:33;;;;;;;15.00;10.67;;;17.50;99.90;;;;;;5078159;28;21091;-66
2021/09/30 10:47:02;;;;;;;12.27;9.40;;;17.60;99.90;;;;;;5082965;28;20442;-67
2021/09/30 10:49:42;;;;;;;12.00;9.70;;;17.60;99.90;;;;;;5094031;28;20571;-69
2021/09/30 10:52:12;;;;;;;11.17;9.73;;;17.60;99.90;;;;;;5060085;28;20459;-65
2021/09/30 10:54:42;;;;;;;12.47;8.83;;;17.70;99.90;;;;;;5087519;28;20440;-65
2021/09/30 10:57:32;;;;;;;10.37;8.17;;;17.80;99.90;;;;;;5094861;28;20428;-68
2021/09/30 10:59:59;;;;;;;9.20;8.20;;;17.80;99.90;;;;;;5079164;28;20471;-65
2021/09/30 11:02:25;;;;;;;8.90;7.70;;;17.80;99.90;;;;;;5082140;28;20621;-66
2021/09/30 11:05:06;;;;;;;10.47;8.60;;;17.90;99.90;;;;;;5078329;28;20449;-68
2021/09/30 11:07:32;;;;;;;10.70;8.40;;;17.90;99.90;;;;;;5060610;28;20446;-68
2021/09/30 11:10:16;;;;;;;9.50;7.80;;;17.90;99.90;;;;;;5088074;28;20454;-70
2021/09/30 11:13:23;;;;;;;11.07;7.37;;;18.00;99.90;;;;;;5081671;28;20220;-70
2021/09/30 11:16:07;;;;;;;11.37;9.43;;;18.00;99.90;;;;;;5006305;28;21098;-71
2021/09/30 11:18:53;;;;;;;10.00;7.80;;;18.00;99.90;;;;;;5004457;28;20483;-68
2021/09/30 11:21:38;;;;;;;10.70;8.67;;;18.00;99.90;;;;;;5071371;28;20453;-70
2021/09/30 11:24:18;;;;;;;12.07;9.57;;;18.00;99.90;;;;;;5088134;28;20972;-68
2021/09/30 11:26:51;;;;;;;10.13;8.87;;;18.10;99.90;;;;;;5084841;28;20959;-70
2021/09/30 11:29:22;;;;;;;10.17;8.93;;;18.10;99.90;;;;;;5058702;28;20841;-68
2021/09/30 11:32:08;;;;;;;10.17;8.43;;;18.10;99.90;;;;;;5070532;28;20440;-70
2021/09/30 11:34:41;;;;;;;11.07;9.07;;;18.10;99.90;;;;;;5081566;28;20931;-72
2021/09/30 11:37:16;;;;;;;15.70;10.27;;;18.10;99.90;;;;;;5084174;28;20796;-71
2021/09/30 11:39:44;;;;;;;11.70;9.50;;;18.10;99.90;;;;;;5078336;28;20448;-71
2021/09/30 11:42:10;;;;;;;12.00;9.07;;;18.10;99.90;;;;;;5085737;28;20436;-71
2021/09/30 11:44:36;;;;;;;9.93;8.73;;;18.20;99.90;;;;;;5065738;28;20464;-67
2021/09/30 11:47:03;;;;;;;10.20;9.10;;;18.20;99.90;;;;;;5060562;28;20433;-67
2021/09/30 11:49:41;;;;;;;13.60;10.17;;;18.20;99.90;;;;;;5088176;28;20243;-68
2021/09/30 11:52:11;;;;;;;11.33;10.13;;;18.20;99.90;;;;;;5066640;28;20439;-65
2021/09/30 11:54:37;;;;;;;12.83;9.87;;;18.20;99.90;;;;;;5086942;28;20441;-65
2021/09/30 11:57:03;;;;;;;11.30;9.30;;;18.20;99.90;;;;;;5069410;28;20444;-67
2021/09/30 11:59:32;;;;;;;13.90;10.83;;;18.20;99.90;;;;;;5070211;28;20450;-66
2021/09/30 12:02:06;;;;;;;12.50;11.20;;;18.20;99.90;;;;;;5088414;28;20486;-67
2021/09/30 12:04:36;;;;;;;13.07;11.17;;;18.20;99.90;;;;;;5058816;28;20947;-65
2021/09/30 12:07:03;;;;;;;13.30;11.03;;;18.30;99.90;;;;;;5072168;28;20506;-68
2021/09/30 12:09:32;;;;;;;15.33;11.47;;;18.30;99.90;;;;;;5071641;28;20980;-68
2021/09/30 12:12:00;;;;;;;13.87;11.23;;;18.30;99.90;;;;;;5068500;28;20804;-65
2021/09/30 12:14:36;;;;;;;12.83;10.70;;;18.30;99.90;;;;;;5086481;28;20453;-62
2021/09/30 12:17:06;;;;;;;13.03;11.03;;;18.30;99.90;;;;;;5062677;28;20473;-61
2021/09/30 12:19:36;;;;;;;18.97;12.27;;;18.30;99.90;;;;;;5087506;28;21160;-65
2021/09/30 12:22:17;;;;;;;14.00;12.30;;;18.30;99.90;;;;;;5065681;28;21020;-65
2021/09/30 12:24:53;;;;;;;14.93;11.33;;;18.30;99.90;;;;;;5088224;28;20448;-69
2021/09/30 12:27:21;;;;;;;13.80;11.40;;;18.30;99.90;;;;;;5066674;28;20976;-69
2021/09/30 12:29:50;;;;;;;15.33;11.33;;;18.30;99.90;;;;;;5087622;28;20468;-69
2021/09/30 12:32:19;;;;;;;15.83;11.73;;;18.20;99.90;;;;;;5084424;28;20527;-69
2021/09/30 12:34:57;;;;;;;14.30;11.20;;;18.20;99.90;;;;;;5069636;28;20473;-67
2021/09/30 12:37:27;;;;;;;17.63;11.30;;;18.20;99.90;;;;;;5084793;28;20558;-64
2021/09/30 12:40:18;;;;;;;16.60;12.07;;;18.20;99.90;;;;;;5091785;28;20513;-66
2021/09/30 12:43:09;;;;;;;12.00;10.17;;;18.30;99.90;;;;;;5080892;28;21785;-66
2021/09/30 12:45:47;;;;;;;18.27;12.70;;;18.30;99.90;;;;;;5061850;28;20456;-70
2021/09/30 12:48:15;;;;;;;14.30;11.03;;;18.30;99.90;;;;;;5085657;28;20471;-64
2021/09/30 12:51:04;;;;;;;12.97;10.50;;;18.30;99.90;;;;;;5086224;28;20902;-67
2021/09/30 12:53:40;;;;;;;14.57;11.30;;;18.30;99.90;;;;;;5067206;28;20463;-66
2021/09/30 12:56:08;;;;;;;13.93;10.27;;;18.20;99.90;;;;;;5079573;28;20424;-73
2021/09/30 12:58:41;;;;;;;15.20;11.30;;;18.20;99.90;;;;;;5071884;28;20801;-69
2021/09/30 13:01:37;;;;;;;17.13;11.40;;;18.20;99.90;;;;;;5074693;28;20433;-69
2021/09/30 13:04:08;;;;;;;14.00;11.03;;;18.20;99.90;;;;;;5071356;28;21020;-67
2021/09/30 13:06:34;;;;;;;19.80;10.67;;;18.20;99.90;;;;;;5083928;28;20414;-67
2021/09/30 13:09:03;;;;;;;14.63;10.80;;;18.20;99.90;;;;;;5064046;28;20480;-68
2021/09/30 13:11:35;;;;;;;13.60;10.30;;;18.10;99.90;;;;;;5081108;28;20481;-69
2021/09/30 13:14:24;;;;;;;17.03;12.30;;;18.10;99.90;;;;;;5061462;28;20552;-68
2021/09/30 13:17:00;;;;;;;17.40;12.47;;;18.10;99.90;;;;;;5063030;28;20459;-65
2021/09/30 13:19:56;;;;;;;13.23;10.60;;;18.10;99.90;;;;;;5075583;28;20452;-65
2021/09/30 13:22:33;;;;;;;14.10;11.00;;;18.10;99.90;;;;;;5062569;28;21068;-67
2021/09/30 13:25:20;;;;;;;14.93;10.47;;;18.10;99.90;;;;;;5072135;28;21070;-68
2021/09/30 13:27:51;;;;;;;15.83;10.80;;;18.10;99.90;;;;;;5084724;28;20544;-69
2021/09/30 13:30:35;;;;;;;16.07;11.67;;;18.00;99.90;;;;;;5055178;28;20455;-66
2021/09/30 13:33:05;;;;;;;16.47;11.10;;;18.00;99.90;;;;;;5061469;28;20408;-68
2021/09/30 13:35:34;;;;;;;15.97;10.53;;;18.00;99.90;;;;;;5069683;28;20488;-67
2021/09/30 13:38:01;;;;;;;13.83;11.00;;;17.90;99.90;;;;;;5075022;28;20447;-66
2021/09/30 13:40:27;;;;;;;14.90;10.10;;;17.90;99.90;;;;;;5080057;28;20468;-67
2021/09/30 13:42:53;;;;;;;14.60;10.47;;;17.90;99.90;;;;;;5073988;28;20632;-67
2021/09/30 13:45:24;;;;;;;14.13;10.40;;;17.90;99.90;;;;;;5100991;28;20411;-71
2021/09/30 13:47:50;;;;;;;17.60;12.60;;;17.90;99.90;;;;;;5106042;28;20525;-68
2021/09/30 13:50:19;;;;;;;16.60;12.10;;;17.90;99.90;;;;;;5092055;28;21020;-68
2021/09/30 13:52:47;;;;;;;18.80;12.90;;;17.90;99.90;;;;;;5089548;28;20437;-68
2021/09/30 13:55:14;;;;;;;17.00;12.80;;;17.90;99.90;;;;;;5052681;28;20740;-68
2021/09/30 13:57:42;;;;;;;15.13;12.10;;;17.90;99.90;;;;;;5076443;28;20435;-68
2021/09/30 14:00:12;;;;;;;17.40;12.67;;;17.80;99.90;;;;;;5059169;28;20988;-69
2021/09/30 14:02:44;;;;;;;15.07;12.10;;;17.80;99.90;;;;;;5074999;28;21021;-68
2021/09/30 14:05:12;;;;;;;19.37;11.53;;;17.80;99.90;;;;;;5082386;28;21098;-69
2021/09/30 14:07:41;;;;;;;16.20;12.50;;;17.70;99.90;;;;;;5075901;28;20443;-70
2021/09/30 14:10:09;;;;;;;19.07;11.43;;;17.70;99.90;;;;;;5085120;28;20524;-69
2021/09/30 14:12:35;;;;;;;15.20;11.77;;;17.70;99.90;;;;;;5074855;28;20410;-69
2021/09/30 14:15:02;;;;;;;17.80;12.83;;;17.70;99.90;;;;;;5066722;28;20456;-69
2021/09/30 14:17:27;;;;;;;17.33;11.83;;;17.70;99.90;;;;;;5065062;28;20908;-69
2021/09/30 14:19:53;;;;;;;14.87;11.90;;;17.60;99.90;;;;;;5059436;28;20532;-69
2021/09/30 14:22:18;;;;;;;14.50;11.23;;;17.70;99.90;;;;;;5071703;28;20592;-69
2021/09/30 14:24:44;;;;;;;16.80;12.10;;;17.60;99.90;;;;;;5066916;28;20600;-69
2021/09/30 14:27:10;;;;;;;18.97;12.47;;;17.60;99.90;;;;;;5060962;28;20215;-68
2021/09/30 14:29:41;;;;;;;18.53;13.13;;;17.60;99.90;;;;;;5058014;28;20783;-69
2021/09/30 14:32:08;;;;;;;18.30;12.60;;;17.60;99.90;;;;;;5055767;28;20189;-65
2021/09/30 14:34:33;;;;;;;18.57;12.83;;;17.50;99.90;;;;;;5063898;28;20461;-71
2021/09/30 14:36:59;;;;;;;16.37;13.10;;;17.50;99.90;;;;;;5065496;28;20449;-71
2021/09/30 14:39:25;;;;;;;15.87;12.20;;;17.50;99.90;;;;;;5052485;28;20765;-65
2021/09/30 14:41:50;;;;;;;19.33;14.53;;;17.50;99.90;;;;;;5054580;28;20217;-66
2021/09/30 14:44:16;;;;;;;17.10;12.80;;;17.40;99.90;;;;;;5058046;28;20200;-66
2021/09/30 14:46:42;;;;;;;15.80;12.33;;;17.40;99.90;;;;;;5057465;28;20695;-66
2021/09/30 14:49:07;;;;;;;21.63;14.00;;;17.40;99.90;;;;;;5058630;28;20220;-67
2021/09/30 14:51:33;;;;;;;18.53;12.70;;;17.40;99.90;;;;;;5060153;28;20416;-70
2021/09/30 14:53:59;;;;;;;17.83;13.40;;;17.40;99.90;;;;;;5052877;28;20771;-66
2021/09/30 14:56:24;;;;;;;17.50;13.23;;;17.30;99.90;;;;;;5059393;28;20357;-69
2021/09/30 14:58:50;;;;;;;18.20;13.73;;;17.30;99.90;;;;;;5058621;28;20202;-70
2021/09/30 15:01:16;;;;;;;20.10;14.87;;;17.30;99.90;;;;;;5062567;28;20189;-70
2021/09/30 15:03:41;;;;;;;21.63;14.93;;;17.30;99.90;;;;;;5050032;28;20193;-65
2021/09/30 15:06:12;;;;;;;20.70;15.07;;;17.30;99.90;;;;;;5054986;28;20181;-66
2021/09/30 15:08:37;;;;;;;17.67;13.33;;;17.20;99.90;;;;;;5054350;28;20245;-65
2021/09/30 15:11:03;;;;;;;21.93;15.00;;;17.20;99.90;;;;;;5063984;28;20469;-68
2021/09/30 15:13:29;;;;;;;18.97;14.07;;;17.20;99.90;;;;;;5064945;28;20276;-71
2021/09/30 15:15:56;;;;;;;21.17;14.97;;;17.20;99.90;;;;;;5065946;28;20189;-71
2021/09/30 15:18:38;;;;;;;19.43;13.80;;;17.10;99.90;;;;;;5047460;28;20254;-64
2021/09/30 15:23:58;;;;;;;17.20;13.77;;;17.10;99.90;;;;;;5043197;28;20465;-64
2021/09/30 15:26:25;;;;;;;19.20;14.77;;;17.10;99.90;;;;;;5038828;28;20848;-64
2021/09/30 15:28:53;;;;;;;19.60;14.07;;;17.00;99.90;;;;;;5045024;28;20539;-69
2021/09/30 15:31:19;;;;;;;20.50;13.17;;;17.00;99.90;;;;;;5059406;28;20437;-64
2021/09/30 15:33:48;;;;;;;17.27;14.07;;;17.00;99.90;;;;;;5042637;28;20873;-72
2021/09/30 15:36:13;;;;;;;20.83;13.40;;;17.00;99.90;;;;;;5056720;28;20422;-64
2021/09/30 15:38:40;;;;;;;17.90;12.53;;;17.00;99.90;;;;;;5042803;28;20422;-68